createdAt,value
2022-12-17T00:02:31.949Z,81.03
2022-12-17T00:05:17.933Z,78.82
2022-12-17T00:08:03.426Z,78.97
2022-12-17T00:10:48.962Z,73.78
2022-12-17T00:13:39.010Z,81.22
2022-12-17T00:16:25.717Z,77.28
2022-12-17T00:19:12.439Z,83.20
2022-12-17T00:21:58.270Z,85.82
2022-12-17T00:24:44.226Z,80.85
2022-12-17T00:27:29.744Z,82.32
2022-12-17T00:30:15.248Z,95.25
2022-12-17T00:33:00.587Z,92.82
2022-12-17T00:35:47.540Z,72.45
2022-12-17T00:38:34.210Z,80.80
2022-12-17T00:41:20.160Z,74.38
2022-12-17T00:44:05.983Z,68.82
2022-12-17T00:46:51.563Z,70.15
2022-12-17T00:49:37.669Z,82.80
2022-12-17T00:52:24.713Z,78.72
2022-12-17T00:55:10.163Z,81.38
2022-12-17T00:58:07.281Z,84.15
2022-12-17T01:00:53.206Z,70.85
2022-12-17T01:03:42.152Z,88.55
2022-12-17T01:06:28.278Z,81.47
2022-12-17T01:09:11.968Z,77.68
2022-12-17T01:11:57.712Z,70.68
2022-12-17T01:14:43.858Z,80.05
2022-12-17T01:17:30.379Z,87.53
2022-12-17T01:20:16.400Z,80.30
2022-12-17T01:23:03.664Z,83.57
2022-12-17T01:25:50.592Z,71.07
2022-12-17T01:28:40.053Z,66.70
2022-12-17T01:31:29.156Z,70.50
2022-12-17T01:34:18.781Z,71.43
2022-12-17T01:37:06.282Z,66.45
2022-12-17T01:39:51.647Z,84.68
2022-12-17T01:42:38.594Z,83.28
2022-12-17T01:45:29.175Z,75.60
2022-12-17T01:48:20.295Z,73.07
2022-12-17T01:51:09.305Z,80.55
2022-12-17T01:53:59.008Z,66.10
2022-12-17T01:56:45.259Z,95.43
2022-12-17T01:59:47.952Z,73.65
2022-12-17T02:02:33.757Z,82.60
2022-12-17T02:05:20.315Z,78.95
2022-12-17T02:08:19.556Z,84.60
2022-12-17T02:11:12.322Z,62.08
2022-12-17T02:14:01.292Z,75.13
2022-12-17T02:17:08.369Z,57.15
2022-12-17T02:20:05.773Z,97.50
2022-12-17T02:23:09.653Z,62.05
2022-12-17T02:26:01.089Z,70.25
2022-12-17T02:28:48.935Z,59.28
2022-12-17T02:31:35.737Z,71.03
2022-12-17T02:34:21.762Z,72.53
2022-12-17T02:37:08.940Z,76.65
2022-12-17T02:39:56.798Z,59.92
2022-12-17T02:42:45.149Z,87.05
2022-12-17T02:45:33.898Z,82.07
2022-12-17T02:48:20.310Z,68.38
2022-12-17T02:51:07.192Z,78.05
2022-12-17T02:53:53.546Z,68.72
2022-12-17T02:56:41.817Z,70.63
2022-12-17T02:59:32.723Z,71.78
2022-12-17T03:02:27.657Z,73.28
2022-12-17T03:05:42.979Z,56.25
2022-12-17T03:08:30.084Z,85.65
2022-12-17T03:11:17.979Z,69.57
2022-12-17T03:14:04.189Z,74.60
2022-12-17T03:16:50.045Z,66.60
2022-12-17T03:19:36.864Z,72.38
2022-12-17T03:22:22.519Z,62.97
2022-12-17T03:25:07.881Z,78.40
2022-12-17T03:27:53.600Z,67.50
2022-12-17T03:30:39.321Z,69.38
2022-12-17T03:33:26.659Z,75.32
2022-12-17T03:36:14.016Z,71.38
2022-12-17T03:39:00.973Z,62.67
2022-12-17T03:41:46.480Z,62.33
2022-12-17T03:44:32.191Z,60.85
2022-12-17T03:47:32.420Z,67.10
2022-12-17T03:50:18.143Z,67.03
2022-12-17T03:53:05.288Z,71.20
2022-12-17T03:55:50.603Z,56.45
2022-12-17T03:58:36.360Z,56.55
2022-12-17T04:01:22.145Z,76.70
2022-12-17T04:04:07.775Z,66.57
2022-12-17T04:06:53.579Z,74.50
2022-12-17T04:09:40.890Z,69.07
2022-12-17T04:12:26.565Z,62.45
2022-12-17T04:15:12.236Z,64.85
2022-12-17T04:17:57.617Z,61.00
2022-12-17T04:20:43.494Z,56.17
2022-12-17T04:23:29.144Z,66.03
2022-12-17T04:26:15.855Z,75.47
2022-12-17T04:29:01.375Z,68.30
2022-12-17T04:31:47.292Z,62.35
2022-12-17T04:34:32.952Z,58.47
2022-12-17T04:37:18.479Z,67.57
2022-12-17T04:40:04.392Z,69.95
2022-12-17T04:42:51.568Z,73.32
2022-12-17T04:45:36.930Z,69.00
2022-12-17T04:48:23.265Z,63.28
2022-12-17T04:51:08.987Z,56.33
2022-12-17T04:53:54.748Z,55.78
2022-12-17T04:56:41.163Z,68.63
2022-12-17T04:59:28.018Z,58.90
2022-12-17T05:02:13.636Z,69.32
2022-12-17T05:04:59.311Z,62.50
2022-12-17T05:07:44.533Z,66.80
2022-12-17T05:10:29.910Z,58.63
2022-12-17T05:13:17.177Z,74.72
2022-12-17T05:16:04.819Z,59.67
2022-12-17T05:18:50.806Z,66.35
2022-12-17T05:21:41.910Z,62.60
2022-12-17T05:24:27.509Z,60.20
2022-12-17T05:27:13.024Z,60.50
2022-12-17T05:29:58.822Z,69.63
2022-12-17T05:32:45.576Z,64.90
2022-12-17T05:35:31.050Z,73.05
2022-12-17T05:38:22.181Z,57.60
2022-12-17T05:41:07.562Z,62.42
2022-12-17T05:43:52.138Z,63.45
2022-12-17T05:46:37.834Z,59.35
2022-12-17T05:49:24.956Z,61.42
2022-12-17T05:52:10.367Z,65.57
2022-12-17T05:54:55.840Z,69.25
2022-12-17T05:57:40.672Z,54.40
2022-12-17T06:00:27.381Z,54.58
2022-12-17T06:03:17.425Z,78.28
2022-12-17T06:06:04.160Z,60.38
2022-12-17T06:08:49.583Z,61.22
2022-12-17T06:11:35.310Z,57.58
2022-12-17T06:14:20.862Z,62.28
2022-12-17T06:17:06.349Z,59.10
2022-12-17T06:19:52.237Z,47.40
2022-12-17T06:22:39.408Z,82.78
2022-12-17T06:25:25.644Z,60.42
2022-12-17T06:28:17.456Z,63.85
2022-12-17T06:31:09.454Z,70.45
2022-12-17T06:33:56.360Z,52.75
2022-12-17T06:36:42.109Z,58.33
2022-12-17T06:39:28.832Z,57.47
2022-12-17T06:42:14.109Z,68.93
2022-12-17T06:44:59.910Z,62.83
2022-12-17T06:47:45.375Z,64.18
2022-12-17T06:50:42.259Z,58.55
2022-12-17T06:53:29.148Z,68.40
2022-12-17T06:56:17.870Z,65.28
2022-12-17T06:59:03.652Z,59.78
2022-12-17T07:01:49.399Z,59.50
2022-12-17T07:04:35.086Z,49.05
2022-12-17T07:07:20.894Z,72.68
2022-12-17T07:10:12.295Z,60.08
2022-12-17T07:13:01.239Z,58.47
2022-12-17T07:15:46.876Z,59.00
2022-12-17T07:18:32.617Z,68.10
2022-12-17T07:21:18.291Z,51.40
2022-12-17T07:24:04.199Z,63.28
2022-12-17T07:26:51.282Z,59.20
2022-12-17T07:29:38.303Z,71.45
2022-12-17T07:32:24.342Z,63.22
2022-12-17T07:35:10.146Z,58.15
2022-12-17T07:37:55.560Z,56.60
2022-12-17T07:40:41.257Z,56.38
2022-12-17T07:43:30.044Z,68.93
2022-12-17T07:46:17.149Z,63.78
2022-12-17T07:49:02.928Z,65.03
2022-12-17T07:51:49.034Z,77.85
2022-12-17T07:54:34.300Z,61.85
2022-12-17T07:57:19.858Z,56.33
2022-12-17T08:00:05.345Z,64.45
2022-12-17T08:02:52.650Z,60.00
2022-12-17T08:05:38.063Z,67.25
2022-12-17T08:08:27.589Z,75.40
2022-12-17T08:11:13.233Z,66.53
2022-12-17T08:13:59.224Z,72.18
2022-12-17T08:16:44.893Z,60.05
2022-12-17T08:19:32.455Z,69.78
2022-12-17T08:22:17.890Z,69.82
2022-12-17T08:25:03.518Z,71.97
2022-12-17T08:27:49.330Z,66.40
2022-12-17T08:30:35.014Z,65.03
2022-12-17T08:33:21.422Z,64.57
2022-12-17T08:36:12.021Z,65.93
2022-12-17T08:38:57.849Z,69.70
2022-12-17T08:41:43.873Z,67.45
2022-12-17T08:44:29.485Z,74.55
2022-12-17T08:47:15.463Z,65.70
2022-12-17T08:50:01.221Z,58.38
2022-12-17T08:52:47.510Z,63.85
2022-12-17T08:55:33.261Z,62.72
2022-12-17T08:58:19.245Z,59.60
2022-12-17T09:01:04.568Z,66.53
2022-12-17T09:03:50.023Z,74.57
2022-12-17T09:06:39.132Z,66.00
2022-12-17T09:09:26.422Z,81.65
2022-12-17T09:12:11.825Z,77.15
2022-12-17T09:14:57.612Z,73.10
2022-12-17T09:17:43.517Z,83.30
2022-12-17T09:20:29.737Z,77.93
2022-12-17T09:23:15.701Z,66.72
2022-12-17T09:26:02.767Z,78.10
2022-12-17T09:28:48.543Z,78.68
2022-12-17T09:31:37.429Z,87.75
2022-12-17T09:34:23.123Z,87.95
2022-12-17T09:37:08.682Z,81.28
2022-12-17T09:39:54.490Z,86.78
2022-12-17T09:42:51.803Z,79.40
2022-12-17T09:45:45.727Z,70.03
2022-12-17T09:48:37.910Z,90.82
2022-12-17T09:51:24.124Z,84.22
2022-12-17T09:54:11.794Z,78.57
2022-12-17T09:57:01.109Z,70.88
2022-12-17T09:59:52.261Z,85.32
2022-12-17T10:02:41.471Z,92.97
2022-12-17T10:05:33.844Z,91.25
2022-12-17T10:08:22.719Z,67.88
2022-12-17T10:11:08.403Z,97.47
2022-12-17T10:13:54.320Z,75.80
2022-12-17T10:16:44.891Z,84.72
2022-12-17T10:19:34.273Z,76.00
2022-12-17T10:22:31.572Z,112.82
2022-12-17T10:25:35.931Z,80.75
2022-12-17T10:28:24.819Z,91.32
2022-12-17T10:31:10.839Z,97.32
2022-12-17T10:33:59.350Z,84.90
2022-12-17T10:37:01.596Z,82.30
2022-12-17T10:39:55.793Z,100.03
2022-12-17T10:42:43.619Z,79.82
2022-12-17T10:45:47.889Z,87.70
2022-12-17T10:48:42.438Z,95.95
2022-12-17T10:51:49.549Z,79.32
2022-12-17T10:54:47.029Z,81.13
2022-12-17T10:57:43.404Z,79.20
2022-12-17T11:00:49.484Z,82.05
2022-12-17T11:03:58.640Z,76.03
2022-12-17T11:06:48.179Z,91.00
2022-12-17T11:09:45.856Z,81.57
2022-12-17T11:12:34.892Z,72.45
2022-12-17T11:15:27.915Z,66.07
2022-12-17T11:18:14.726Z,64.28
2022-12-17T11:21:07.329Z,64.85
2022-12-17T11:23:56.338Z,68.13
2022-12-17T11:26:45.936Z,60.67
2022-12-17T11:29:32.735Z,61.95
2022-12-17T11:32:37.422Z,73.93
2022-12-17T11:35:28.596Z,75.60
2022-12-17T11:38:22.724Z,75.93
2022-12-17T11:41:15.609Z,74.72
2022-12-17T11:44:13.090Z,64.53
2022-12-17T11:47:04.998Z,76.78
2022-12-17T11:50:01.718Z,64.40
2022-12-17T11:52:54.652Z,62.97
2022-12-17T11:55:48.852Z,72.82
2022-12-17T11:58:41.654Z,62.00
2022-12-17T12:01:38.322Z,68.07
2022-12-17T12:04:38.976Z,78.80
2022-12-17T12:07:32.673Z,68.28
2022-12-17T12:10:23.069Z,62.45
2022-12-17T12:13:20.668Z,54.50
2022-12-17T12:16:14.893Z,66.85
2022-12-17T12:19:24.791Z,59.13
2022-12-17T12:22:19.426Z,53.17
2022-12-17T12:25:18.147Z,61.42
2022-12-17T12:28:13.860Z,65.60
2022-12-17T12:31:09.469Z,56.20
2022-12-17T12:34:15.892Z,54.58
2022-12-17T12:37:05.020Z,53.75
2022-12-17T12:39:56.913Z,59.65
2022-12-17T12:42:49.892Z,48.40
2022-12-17T12:45:52.493Z,41.53
2022-12-17T12:48:51.065Z,59.22
2022-12-17T12:51:41.153Z,56.53
2022-12-17T12:54:45.145Z,53.15
2022-12-17T12:57:45.272Z,43.10
2022-12-17T13:00:47.705Z,38.65
2022-12-17T13:03:40.153Z,54.75
2022-12-17T13:06:08.997Z,47.45
2022-12-17T13:08:39.107Z,55.67
2022-12-17T13:11:28.022Z,49.30
2022-12-17T13:14:02.434Z,47.30
2022-12-17T13:16:50.283Z,43.10
2022-12-17T13:19:21.732Z,49.40
2022-12-17T13:21:49.947Z,45.05
2022-12-17T13:24:26.649Z,48.85
2022-12-17T13:26:56.090Z,45.70
2022-12-17T13:29:29.189Z,48.47
2022-12-17T13:32:07.184Z,38.30
2022-12-17T13:34:47.203Z,55.17
2022-12-17T13:37:27.489Z,47.95
2022-12-17T13:40:06.155Z,52.33
2022-12-17T13:42:37.366Z,51.80
2022-12-17T13:45:07.056Z,50.13
2022-12-17T13:47:38.366Z,51.05
2022-12-17T13:50:36.938Z,48.53
2022-12-17T13:53:16.632Z,51.55
2022-12-17T13:55:51.517Z,46.72
2022-12-17T13:58:29.518Z,67.47
2022-12-17T14:01:09.990Z,49.70
2022-12-17T14:06:31.029Z,59.22
2022-12-17T14:08:59.903Z,54.75
2022-12-17T14:11:46.290Z,53.67
2022-12-17T14:14:23.169Z,36.97
2022-12-17T14:16:51.582Z,50.55
2022-12-17T14:19:19.801Z,43.15
2022-12-17T14:21:48.511Z,44.13
2022-12-17T14:24:29.427Z,46.05
2022-12-17T14:26:59.869Z,39.08
2022-12-17T14:29:30.839Z,62.10
2022-12-17T14:32:00.917Z,61.13
2022-12-17T14:34:30.034Z,46.00
2022-12-17T14:37:00.251Z,43.25
2022-12-17T14:39:31.097Z,40.55
2022-12-17T14:42:25.480Z,34.05
2022-12-17T14:44:57.587Z,37.85
2022-12-17T14:47:28.383Z,36.90
2022-12-17T14:50:02.724Z,38.05
2022-12-17T14:52:43.790Z,38.05
2022-12-17T14:55:34.664Z,35.00
2022-12-17T14:58:25.388Z,45.97
2022-12-17T15:00:59.013Z,55.20
2022-12-17T15:03:29.129Z,35.88
2022-12-17T15:06:00.169Z,43.33
2022-12-17T15:08:32.925Z,36.85
2022-12-17T15:11:01.227Z,42.85
2022-12-17T15:13:29.213Z,33.53
2022-12-17T15:15:59.088Z,46.55
2022-12-17T15:18:27.147Z,54.03
2022-12-17T15:20:56.244Z,46.08
2022-12-17T15:23:25.219Z,38.40
2022-12-17T15:25:55.125Z,46.50
2022-12-17T15:28:24.134Z,53.88
2022-12-17T15:30:52.388Z,47.03
2022-12-17T15:33:22.610Z,72.25
2022-12-17T15:35:50.707Z,40.90
2022-12-17T15:38:18.684Z,53.17
2022-12-17T15:40:46.716Z,54.22
2022-12-17T15:43:14.657Z,42.08
2022-12-17T15:45:45.046Z,31.23
2022-12-17T15:48:15.701Z,37.95
2022-12-17T15:50:45.298Z,37.85
2022-12-17T15:53:13.396Z,63.97
2022-12-17T15:55:41.528Z,52.70
2022-12-17T15:58:11.405Z,42.55
2022-12-17T16:00:39.603Z,52.72
2022-12-17T16:03:07.937Z,46.10
2022-12-17T16:05:36.091Z,39.88
2022-12-17T16:08:05.857Z,49.92
2022-12-17T16:10:33.793Z,41.17
2022-12-17T16:13:01.848Z,60.65
2022-12-17T16:15:30.305Z,42.08
2022-12-17T16:17:58.486Z,47.78
2022-12-17T16:20:27.001Z,62.63
2022-12-17T16:22:55.070Z,37.35
2022-12-17T16:25:24.398Z,44.13
2022-12-17T16:27:52.507Z,57.10
2022-12-17T16:30:21.070Z,50.30
2022-12-17T16:32:49.350Z,43.83
2022-12-17T16:35:17.540Z,60.63
2022-12-17T16:37:45.733Z,43.80
2022-12-17T16:40:14.028Z,58.63
2022-12-17T16:42:43.734Z,46.65
2022-12-17T16:45:12.367Z,49.53
2022-12-17T16:47:40.375Z,55.00
2022-12-17T16:50:08.783Z,41.90
2022-12-17T16:52:37.078Z,43.42
2022-12-17T16:55:06.486Z,43.67
2022-12-17T16:57:34.729Z,37.92
2022-12-17T17:00:04.998Z,48.78
2022-12-17T17:02:33.555Z,56.03
2022-12-17T17:05:01.754Z,41.97
2022-12-17T17:07:29.862Z,42.28
2022-12-17T17:09:58.176Z,56.40
2022-12-17T17:12:27.198Z,44.92
2022-12-17T17:14:55.183Z,50.70
2022-12-17T17:17:54.256Z,55.60
2022-12-17T17:20:13.673Z,57.80
2022-12-17T17:22:41.867Z,59.97
2022-12-17T17:25:10.030Z,57.08
2022-12-17T17:27:38.439Z,55.67
2022-12-17T17:30:07.758Z,53.40
2022-12-17T17:32:37.370Z,52.33
2022-12-17T17:35:06.168Z,42.97
2022-12-17T17:37:34.134Z,49.40
2022-12-17T17:40:02.127Z,40.10
2022-12-17T17:42:30.280Z,41.72
2022-12-17T17:44:58.785Z,56.75
2022-12-17T17:47:26.787Z,47.97
2022-12-17T17:49:56.265Z,46.00
2022-12-17T17:52:24.319Z,45.97
2022-12-17T17:54:53.032Z,42.75
2022-12-17T17:57:21.305Z,57.15
2022-12-17T17:59:49.341Z,40.78
2022-12-17T18:02:17.491Z,42.67
2022-12-17T18:04:45.587Z,45.90
2022-12-17T18:07:30.302Z,45.53
2022-12-17T18:09:59.812Z,44.78
2022-12-17T18:12:45.543Z,47.13
2022-12-17T18:15:16.392Z,35.85
2022-12-17T18:17:47.716Z,52.17
2022-12-17T18:20:16.556Z,49.80
2022-12-17T18:22:47.258Z,56.08
2022-12-17T18:25:16.235Z,50.20
2022-12-17T18:27:44.700Z,49.20
2022-12-17T18:30:13.698Z,50.92
2022-12-17T18:32:42.967Z,47.10
2022-12-17T18:35:11.387Z,54.90
2022-12-17T18:37:39.484Z,42.65
2022-12-17T18:40:10.280Z,43.22
2022-12-17T18:42:55.865Z,45.72
2022-12-17T18:45:24.107Z,46.38
2022-12-17T18:47:52.517Z,45.05
2022-12-17T18:50:20.690Z,63.90
2022-12-17T18:52:48.643Z,42.97
2022-12-17T18:55:18.183Z,62.33
2022-12-17T18:57:46.377Z,48.50
2022-12-17T19:00:16.266Z,58.40
2022-12-17T19:02:44.705Z,47.28
2022-12-17T19:05:12.916Z,50.60
2022-12-17T19:07:41.048Z,44.45
2022-12-17T19:10:10.067Z,49.40
2022-12-17T19:12:39.487Z,37.20
2022-12-17T19:15:08.835Z,45.38
2022-12-17T19:17:36.911Z,51.88
2022-12-17T19:20:05.473Z,38.72
2022-12-17T19:22:33.658Z,41.72
2022-12-17T19:25:03.205Z,37.20
2022-12-17T19:27:31.192Z,43.67
2022-12-17T19:30:01.061Z,38.50
2022-12-17T19:32:29.182Z,36.50
2022-12-17T19:34:57.323Z,33.97
2022-12-17T19:37:25.640Z,35.45
2022-12-17T19:39:53.686Z,37.28
2022-12-17T19:42:35.219Z,37.65
2022-12-17T19:45:07.772Z,46.78
2022-12-17T19:47:35.984Z,38.70
2022-12-17T19:50:04.491Z,41.55
2022-12-17T19:52:32.783Z,40.17
2022-12-17T19:55:02.101Z,48.22
2022-12-17T19:57:31.762Z,49.75
2022-12-17T20:00:00.182Z,38.55
2022-12-17T20:02:32.822Z,44.60
2022-12-17T20:05:01.713Z,45.28
2022-12-17T20:07:29.790Z,34.03
2022-12-17T20:09:57.809Z,34.45
2022-12-17T20:12:25.987Z,32.63
2022-12-17T20:14:54.437Z,41.85
2022-12-17T20:17:22.484Z,43.35
2022-12-17T20:19:53.398Z,38.88
2022-12-17T20:22:23.243Z,51.25
2022-12-17T20:24:53.153Z,40.85
2022-12-17T20:27:21.430Z,38.95
2022-12-17T20:29:49.443Z,42.92
2022-12-17T20:32:19.482Z,41.47
2022-12-17T20:34:47.648Z,38.97
2022-12-17T20:37:17.577Z,43.63
2022-12-17T20:39:45.846Z,40.80
2022-12-17T20:42:14.084Z,41.20
2022-12-17T20:44:42.974Z,29.92
2022-12-17T20:47:10.976Z,35.92
2022-12-17T20:49:39.437Z,37.53
2022-12-17T20:52:07.537Z,32.33
2022-12-17T20:54:36.950Z,34.13
2022-12-17T20:57:05.133Z,32.35
2022-12-17T20:59:33.159Z,37.60
2022-12-17T21:02:01.283Z,32.30
2022-12-17T21:04:29.588Z,37.28
2022-12-17T21:06:57.800Z,36.45
2022-12-17T21:09:25.785Z,37.28
2022-12-17T21:11:55.207Z,36.72
2022-12-17T21:14:23.257Z,34.15
2022-12-17T21:16:51.590Z,36.63
2022-12-17T21:19:20.417Z,26.27
2022-12-17T21:21:48.945Z,31.50
2022-12-17T21:24:17.939Z,28.27
2022-12-17T21:26:47.752Z,27.45
2022-12-17T21:29:18.428Z,34.83
2022-12-17T21:31:49.391Z,34.72
2022-12-17T21:34:21.525Z,36.15
2022-12-17T21:36:50.069Z,35.90
2022-12-17T21:39:19.408Z,30.90
2022-12-17T21:42:08.036Z,29.50
2022-12-17T21:44:38.966Z,35.55
2022-12-17T21:47:07.390Z,24.98
2022-12-17T21:49:35.642Z,27.77
2022-12-17T21:52:03.806Z,31.50
2022-12-17T21:54:32.122Z,30.98
2022-12-17T21:57:00.595Z,35.22
2022-12-17T21:59:28.752Z,29.98
2022-12-17T22:01:58.381Z,31.40
2022-12-17T22:04:26.915Z,31.70
2022-12-17T22:06:58.516Z,28.80
2022-12-17T22:09:49.086Z,31.23
2022-12-17T22:12:39.363Z,27.20
2022-12-17T22:15:10.994Z,28.25
2022-12-17T22:17:41.785Z,30.58
2022-12-17T22:20:11.716Z,28.40
2022-12-17T22:22:39.767Z,29.13
2022-12-17T22:25:11.409Z,31.08
2022-12-17T22:27:41.154Z,38.90
2022-12-17T22:30:31.724Z,22.10
2022-12-17T22:33:13.408Z,26.08
2022-12-17T22:37:41.558Z,30.42
2022-12-17T22:42:19.625Z,20.27
2022-12-17T22:44:38.093Z,32.40
2022-12-17T22:44:51.419Z,33.05
2022-12-17T22:47:21.070Z,37.85
2022-12-17T22:49:50.516Z,28.92
2022-12-17T22:52:19.835Z,42.35
2022-12-17T22:54:48.824Z,27.35
2022-12-17T22:57:35.868Z,28.27
2022-12-17T23:00:10.367Z,25.33
2022-12-17T23:02:38.550Z,31.75
2022-12-17T23:05:09.592Z,27.95
2022-12-17T23:07:37.666Z,24.65
2022-12-17T23:10:06.818Z,30.63
2022-12-17T23:12:54.031Z,27.05
2022-12-17T23:15:29.499Z,18.48
2022-12-17T23:18:00.106Z,32.47
2022-12-17T23:20:32.085Z,31.23
2022-12-17T23:23:00.547Z,26.83
2022-12-17T23:25:30.085Z,27.00
2022-12-17T23:27:58.259Z,28.77
2022-12-17T23:30:26.774Z,29.10
2022-12-17T23:32:54.805Z,25.10
2022-12-17T23:35:22.826Z,28.25
2022-12-17T23:37:52.332Z,21.08
2022-12-17T23:40:20.529Z,28.85
2022-12-17T23:42:48.748Z,29.77
2022-12-17T23:45:16.743Z,34.47
2022-12-17T23:47:45.064Z,25.55
2022-12-17T23:50:13.115Z,40.78
2022-12-17T23:52:41.625Z,26.10
2022-12-17T23:55:12.495Z,23.63
2022-12-17T23:57:40.541Z,35.83
